UAE51N OMDB-KSFO
Flight info
| Callsign | UAE51N |
|---|---|
| Flight time | N/A |
| Altitude | 30000 |
| Route | DAVMO M318 GABKO M317 ROTAL P574 SYZ P550 DASIS UL746 ODERO DCT LAPKA DCT ETEPA DCT SAT DCT KENIN DCT LENOV L623 ADVAB L619 DENKO L996 VAVUN M602 BINKA DCT MASOR DCT NEDIK DCT VAXIT DCT ARTEX DCT LAMRO DCT ERAKA/M080F300 DCT 6020N DCT 6130N DCT 6140N DCT 5950N DCT AVUTI/N0459F300 DCT ALSOP DCT MCKEE DCT SOCAN DCT PEMLU DCT YSP DCT DLH DCT RAP DCT PARZZ DCT AMAKR BDEGA4 |
| Aircraft | A388/J-SADE2E3FGHIJ3J4J5M1RWXY/LB1D1 |
Departure
| Time | 2026-04-22 19:07 |
|---|---|
| Airport | Dubai International Airport (OMDB) |
Arrival
| Time | N/A |
|---|---|
| Airport | San Francisco International Airport (KSFO) |
| Time | Latitude | Longitude | Altitude | Speed | Heading |
|---|---|---|---|---|---|
| 2026-04-22 18:19 | 25.24774 | 55.36505 | 27 ft | 0 kts | 211° |
| 2026-04-22 18:34 | 25.24781 | 55.36510 | 25 ft | 2 kts | 211° |
| 2026-04-22 18:34 | 25.24797 | 55.36521 | 25 ft | 3 kts | 211° |
| 2026-04-22 18:35 | 25.24815 | 55.36532 | 24 ft | 3 kts | 211° |
| 2026-04-22 18:35 | 25.24827 | 55.36540 | 28 ft | 2 kts | 208° |
| 2026-04-22 18:35 | 25.24842 | 55.36546 | 26 ft | 3 kts | 162° |
| 2026-04-22 18:35 | 25.24857 | 55.36535 | 25 ft | 3 kts | 125° |
| 2026-04-22 18:36 | 25.24867 | 55.36518 | 28 ft | 2 kts | 121° |
| 2026-04-22 18:36 | 25.24869 | 55.36514 | 25 ft | 2 kts | 121° |
| 2026-04-22 18:42 | 25.24868 | 55.36516 | 27 ft | 2 kts | 116° |
| 2026-04-22 18:42 | 25.24867 | 55.36525 | 26 ft | 1 kts | 76° |
| 2026-04-22 18:42 | 25.24871 | 55.36533 | 25 ft | 1 kts | 38° |
| 2026-04-22 18:43 | 25.24878 | 55.36537 | 25 ft | 2 kts | 2° |
| 2026-04-22 18:43 | 25.24885 | 55.36535 | 26 ft | 2 kts | 327° |
| 2026-04-22 18:43 | 25.24892 | 55.36527 | 25 ft | 1 kts | 285° |
| 2026-04-22 18:43 | 25.24896 | 55.36486 | 24 ft | 7 kts | 275° |
| 2026-04-22 18:44 | 25.24903 | 55.36457 | 27 ft | 0 kts | 304° |
| 2026-04-22 18:46 | 25.24904 | 55.36457 | 27 ft | 1 kts | 304° |
| 2026-04-22 18:47 | 25.24913 | 55.36439 | 27 ft | 4 kts | 296° |
| 2026-04-22 18:47 | 25.24928 | 55.36409 | 27 ft | 5 kts | 300° |
| 2026-04-22 18:47 | 25.24954 | 55.36361 | 27 ft | 10 kts | 301° |
| 2026-04-22 18:47 | 25.24969 | 55.36334 | 27 ft | 0 kts | 301° |
| 2026-04-22 18:48 | 25.24982 | 55.36310 | 27 ft | 8 kts | 301° |
| 2026-04-22 18:48 | 25.25024 | 55.36233 | 27 ft | 13 kts | 301° |
| 2026-04-22 18:48 | 25.25071 | 55.36149 | 27 ft | 13 kts | 302° |
| 2026-04-22 18:48 | 25.25125 | 55.36070 | 27 ft | 14 kts | 322° |
| 2026-04-22 18:49 | 25.25150 | 55.36052 | 27 ft | 0 kts | 328° |
| 2026-04-22 18:54 | 25.25162 | 55.36044 | 27 ft | 8 kts | 329° |
| 2026-04-22 18:54 | 25.25216 | 55.36009 | 27 ft | 10 kts | 328° |
| 2026-04-22 18:55 | 25.25272 | 55.35961 | 27 ft | 11 kts | 315° |
| 2026-04-22 18:55 | 25.25317 | 55.35893 | 27 ft | 11 kts | 301° |
| 2026-04-22 18:55 | 25.25364 | 55.35807 | 27 ft | 18 kts | 301° |
| 2026-04-22 18:55 | 25.25429 | 55.35687 | 27 ft | 18 kts | 301° |
| 2026-04-22 18:56 | 25.25492 | 55.35575 | 27 ft | 17 kts | 301° |
| 2026-04-22 18:56 | 25.25560 | 55.35453 | 27 ft | 26 kts | 302° |
| 2026-04-22 18:56 | 25.25649 | 55.35291 | 27 ft | 21 kts | 301° |
| 2026-04-22 18:56 | 25.25719 | 55.35165 | 27 ft | 17 kts | 302° |
| 2026-04-22 18:57 | 25.25783 | 55.35065 | 27 ft | 14 kts | 336° |
| 2026-04-22 18:57 | 25.25863 | 55.35075 | 27 ft | 11 kts | 25° |
| 2026-04-22 18:57 | 25.25939 | 55.35123 | 27 ft | 13 kts | 31° |
| 2026-04-22 18:57 | 25.26015 | 55.35173 | 27 ft | 13 kts | 34° |
| 2026-04-22 18:58 | 25.26093 | 55.35232 | 27 ft | 12 kts | 52° |
| 2026-04-22 18:58 | 25.26109 | 55.35289 | 27 ft | 12 kts | 93° |
| 2026-04-22 18:58 | 25.26056 | 55.35409 | 25 ft | 16 kts | 120° |
| 2026-04-22 18:58 | 25.25991 | 55.35527 | 27 ft | 21 kts | 122° |
| 2026-04-22 18:59 | 25.25931 | 55.35636 | 27 ft | 27 kts | 121° |
| 2026-04-22 18:59 | 25.25847 | 55.35787 | 27 ft | 23 kts | 122° |
| 2026-04-22 18:59 | 25.25763 | 55.35935 | 27 ft | 21 kts | 122° |
| 2026-04-22 18:59 | 25.25684 | 55.36076 | 27 ft | 21 kts | 122° |
| 2026-04-22 19:00 | 25.25610 | 55.36212 | 27 ft | 20 kts | 121° |
| 2026-04-22 19:00 | 25.25533 | 55.36351 | 27 ft | 22 kts | 122° |
| 2026-04-22 19:00 | 25.25451 | 55.36498 | 27 ft | 23 kts | 121° |
| 2026-04-22 19:00 | 25.25364 | 55.36656 | 27 ft | 25 kts | 121° |
| 2026-04-22 19:01 | 25.25274 | 55.36818 | 27 ft | 24 kts | 121° |
| 2026-04-22 19:01 | 25.25190 | 55.36972 | 27 ft | 23 kts | 121° |
| 2026-04-22 19:01 | 25.25106 | 55.37121 | 27 ft | 23 kts | 122° |
| 2026-04-22 19:01 | 25.25019 | 55.37278 | 27 ft | 24 kts | 121° |
| 2026-04-22 19:02 | 25.24934 | 55.37429 | 27 ft | 22 kts | 122° |
| 2026-04-22 19:02 | 25.24854 | 55.37572 | 27 ft | 21 kts | 121° |
| 2026-04-22 19:02 | 25.24781 | 55.37710 | 27 ft | 20 kts | 120° |
| 2026-04-22 19:02 | 25.24708 | 55.37841 | 27 ft | 20 kts | 122° |
| 2026-04-22 19:03 | 25.24633 | 55.37973 | 27 ft | 21 kts | 122° |
| 2026-04-22 19:03 | 25.24552 | 55.38117 | 27 ft | 21 kts | 121° |
| 2026-04-22 19:03 | 25.24504 | 55.38219 | 27 ft | 10 kts | 90° |
| 2026-04-22 19:03 | 25.24523 | 55.38259 | 27 ft | 0 kts | 34° |
| 2026-04-22 19:04 | 25.24533 | 55.38267 | 27 ft | 6 kts | 34° |
| 2026-04-22 19:05 | 25.24592 | 55.38309 | 27 ft | 12 kts | 32° |
| 2026-04-22 19:05 | 25.24617 | 55.38320 | 27 ft | 3 kts | 1° |
| 2026-04-22 19:05 | 25.24646 | 55.38309 | 27 ft | 5 kts | 321° |
| 2026-04-22 19:05 | 25.24652 | 55.38303 | 27 ft | 6 kts | 303° |
| 2026-04-22 19:06 | 25.24783 | 55.38071 | 27 ft | 68 kts | 301° |
| 2026-04-22 19:06 | 25.25149 | 55.37412 | 27 ft | 128 kts | 301° |
| 2026-04-22 19:06 | 25.25684 | 55.36450 | 29 ft | 167 kts | 301° |
| 2026-04-22 19:07 | 25.26990 | 55.34056 | 397 ft | 191 kts | 302° |
| 2026-04-22 19:07 | 25.27702 | 55.32770 | 677 ft | 197 kts | 303° |
| 2026-04-22 19:07 | 25.28427 | 55.31481 | 923 ft | 201 kts | 303° |
| 2026-04-22 19:07 | 25.29257 | 55.30212 | 949 ft | 206 kts | 320° |
| 2026-04-22 19:08 | 25.30531 | 55.29504 | 1013 ft | 210 kts | 351° |
| 2026-04-22 19:08 | 25.31995 | 55.29507 | 1077 ft | 211 kts | 4° |
| 2026-04-22 19:08 | 25.33480 | 55.29583 | 1113 ft | 216 kts | 2° |
| 2026-04-22 19:08 | 25.35040 | 55.29623 | 1184 ft | 231 kts | 1° |
| 2026-04-22 19:09 | 25.36656 | 55.29653 | 1385 ft | 241 kts | 1° |
| 2026-04-22 19:09 | 25.38338 | 55.29686 | 1793 ft | 242 kts | 2° |
| 2026-04-22 19:09 | 25.40003 | 55.29907 | 2260 ft | 242 kts | 14° |
| 2026-04-22 19:09 | 25.41553 | 55.30492 | 2860 ft | 232 kts | 24° |
| 2026-04-22 19:10 | 25.43068 | 55.31235 | 3035 ft | 246 kts | 23° |
| 2026-04-22 19:10 | 25.44692 | 55.31998 | 3161 ft | 260 kts | 22° |
| 2026-04-22 19:10 | 25.46395 | 55.32786 | 3363 ft | 269 kts | 22° |